Time;durP1;ratioP1;P1;durP2;ratioP2;P2;SDS_P1;SDS_P2;PMS_P1;PMS_P2;Temp;Humidity;BMP_temperature;BMP_pressure;BME280_temperature;BME280_humidity;BME280_pressure;Samples;Min_cycle;Max_cycle;Signal;HPM_P1;HPM_P2
2022/01/15 00:00:40;;;;;;;37.10;19.63;;;;;;;4.55;100.00;102548.88;4967601;28;20050;-86
2022/01/15 00:03:10;;;;;;;30.52;16.77;;;;;;;4.56;100.00;102553.25;4973556;28;20046;-85
2022/01/15 00:05:37;;;;;;;36.05;18.23;;;;;;;4.56;100.00;102548.97;4961709;28;20074;-84
2022/01/15 00:08:05;;;;;;;34.10;18.00;;;;;;;4.55;100.00;102552.38;4944686;28;20079;-87
2022/01/15 00:10:33;;;;;;;39.60;19.42;;;;;;;4.55;100.00;102557.56;4957671;28;20136;-87
2022/01/15 00:13:03;;;;;;;29.83;17.92;;;;;;;4.53;100.00;102551.41;4953976;28;20985;-87
2022/01/15 00:15:37;;;;;;;41.30;20.73;;;;;;;4.53;100.00;102548.81;4963677;28;20069;-86
2022/01/15 00:18:11;;;;;;;34.75;19.30;;;;;;;4.51;100.00;102544.38;4956437;28;20126;-86
2022/01/15 00:20:38;;;;;;;;;;;;;;;4.49;100.00;102548.63;4956243;28;20047;-85
2022/01/15 00:23:12;;;;;;;37.55;17.98;;;;;;;4.48;100.00;102539.94;4970223;28;20001;-85
2022/01/15 00:25:39;;;;;;;33.90;18.73;;;;;;;4.49;100.00;102541.72;4951428;28;20050;-87
2022/01/15 00:28:06;;;;;;;36.45;18.48;;;;;;;4.49;100.00;102549.50;4954146;28;20135;-87
2022/01/15 00:30:35;;;;;;;35.72;17.63;;;;;;;4.50;100.00;102540.00;4953311;28;20212;-86
2022/01/15 00:33:09;;;;;;;35.13;18.05;;;;;;;4.51;100.00;102536.59;4965918;28;20120;-87
2022/01/15 00:35:37;;;;;;;27.73;16.83;;;;;;;4.51;100.00;102544.38;4953908;28;20038;-87
2022/01/15 00:38:04;;;;;;;35.38;17.70;;;;;;;4.50;100.00;102540.00;4946655;28;20172;-87
2022/01/15 00:40:30;;;;;;;35.13;17.73;;;;;;;4.50;100.00;102537.41;4939086;28;20100;-87
2022/01/15 00:42:57;;;;;;;37.90;19.30;;;;;;;4.49;100.00;102536.53;4956020;28;20046;-87
2022/01/15 00:45:23;;;;;;;38.75;19.90;;;;;;;4.48;100.00;102539.94;4965221;28;20042;-88
2022/01/15 00:47:52;;;;;;;30.38;17.05;;;;;;;4.52;100.00;102546.16;4953107;28;20046;-87
2022/01/15 00:50:20;;;;;;;34.88;19.08;;;;;;;4.50;100.00;102542.59;4968122;28;20047;-86
2022/01/15 00:52:47;;;;;;;29.23;16.27;;;;;;;4.49;100.00;102540.84;4941048;28;20130;-86
2022/01/15 00:55:16;;;;;;;36.88;17.77;;;;;;;4.45;100.00;102535.50;4942561;28;20041;-85
2022/01/15 00:57:42;;;;;;;34.08;17.60;;;;;;;4.47;100.00;102530.38;4967297;28;20070;-85
2022/01/15 01:00:13;;;;;;;31.70;16.58;;;;;;;4.45;100.00;102527.72;4955742;28;20054;-88
2022/01/15 01:02:40;;;;;;;32.35;17.20;;;;;;;4.48;100.00;102526.97;4970539;28;20134;-85
2022/01/15 01:05:08;;;;;;;34.33;18.23;;;;;;;4.47;100.00;102530.38;4972760;28;20528;-86
2022/01/15 01:07:34;;;;;;;41.50;19.65;;;;;;;4.47;100.00;102530.38;4969505;28;20172;-85
2022/01/15 01:10:17;;;;;;;33.92;18.48;;;;;;;4.47;100.00;102530.38;4976270;28;20125;-86
2022/01/15 01:13:08;;;;;;;34.50;19.02;;;;;;;4.47;100.00;102520.00;4955864;28;20327;-85
2022/01/15 01:21:33;;;;;;;45.17;20.13;;;;;;;4.47;100.00;102520.91;4936907;28;20043;-87
2022/01/15 01:23:56;;;;;;;36.40;18.27;;;;;;;4.48;100.00;102519.19;4949994;28;20039;-87
2022/01/15 01:26:28;;;;;;;32.50;18.98;;;;;;;4.48;100.00;102506.22;4934811;28;20062;-87
2022/01/15 01:29:03;;;;;;;35.20;17.52;;;;;;;4.45;100.00;102506.09;4937223;28;20674;-87
2022/01/15 01:31:36;;;;;;;36.53;18.40;;;;;;;4.43;100.00;102507.72;4936442;28;20059;-87
2022/01/15 01:34:08;;;;;;;38.72;19.20;;;;;;;4.42;100.00;102504.25;4934723;28;20141;-87
2022/01/15 01:36:42;;;;;;;36.38;18.17;;;;;;;4.44;100.00;102512.09;4935027;28;20058;-87
2022/01/15 01:39:15;;;;;;;40.58;19.40;;;;;;;4.45;100.00;102508.69;4932880;28;20043;-86
2022/01/15 01:41:48;;;;;;;35.75;18.27;;;;;;;4.47;100.00;102514.81;4934221;28;20070;-86
2022/01/15 01:44:18;;;;;;;36.00;18.80;;;;;;;4.45;100.00;102511.28;4932419;28;20055;-87
2022/01/15 01:46:50;;;;;;;34.55;18.02;;;;;;;4.45;100.00;102519.06;4935909;28;20051;-87
2022/01/15 01:49:18;;;;;;;35.38;17.60;;;;;;;4.44;100.00;102507.78;4936524;28;20114;-87
2022/01/15 01:51:46;;;;;;;38.17;19.80;;;;;;;4.44;100.00;102504.31;4931127;28;20067;-87
2022/01/15 01:54:16;;;;;;;38.67;18.00;;;;;;;4.43;100.00;102498.25;4951747;28;20723;-87
2022/01/15 01:56:44;;;;;;;34.47;17.92;;;;;;;4.44;100.00;102506.91;4932623;28;20051;-87
2022/01/15 01:59:10;;;;;;;31.13;17.00;;;;;;;4.45;100.00;102488.81;4929535;28;20469;-87
2022/01/15 02:01:38;;;;;;;30.95;17.85;;;;;;;4.45;100.00;102491.41;4948342;28;20043;-87
2022/01/15 02:04:05;;;;;;;33.03;15.13;;;;;;;4.46;100.00;102490.59;4942961;28;20058;-88
2022/01/15 02:06:32;;;;;;;39.05;19.55;;;;;;;4.47;100.00;102489.78;4911814;28;20097;-87
2022/01/15 02:08:59;;;;;;;36.58;17.85;;;;;;;4.48;100.00;102495.84;4950219;28;20145;-87
2022/01/15 02:11:26;;;;;;;39.05;17.50;;;;;;;4.49;100.00;102489.84;4930273;28;20079;-87
2022/01/15 02:13:55;;;;;;;39.70;18.50;;;;;;;4.51;100.00;102488.22;4953968;28;20639;-87
2022/01/15 02:16:23;;;;;;;36.53;18.67;;;;;;;4.50;100.00;102486.44;4931063;28;20054;-87
2022/01/15 02:18:56;;;;;;;37.20;18.65;;;;;;;4.52;100.00;102486.50;4938777;28;20047;-87
2022/01/15 02:24:22;;;;;;;32.90;17.40;;;;;;;4.52;100.00;102471.81;4894170;29;20052;-87
2022/01/15 02:26:48;;;;;;;32.28;14.60;;;;;;;4.54;100.00;102470.19;4881845;29;20787;-87
2022/01/15 02:29:16;;;;;;;33.80;15.15;;;;;;;4.54;100.00;102462.41;4902900;28;20055;-87
2022/01/15 02:31:42;;;;;;;30.90;15.25;;;;;;;4.53;100.00;102457.16;4937363;28;20051;-87
2022/01/15 02:34:09;;;;;;;34.85;17.25;;;;;;;4.53;100.00;102458.03;4939513;28;20035;-87
2022/01/15 02:36:37;;;;;;;32.13;16.75;;;;;;;4.51;100.00;102464.88;4916095;28;20058;-87
2022/01/15 02:39:06;;;;;;;35.65;17.90;;;;;;;4.52;100.00;102458.84;4952148;28;20047;-87
2022/01/15 02:41:39;;;;;;;45.05;20.95;;;;;;;4.53;100.00;102458.03;4932322;28;20453;-86
2022/01/15 02:44:16;;;;;;;37.97;20.33;;;;;;;4.52;100.00;102455.38;4934333;28;20054;-86
2022/01/15 02:49:28;;;;;;;36.85;20.05;;;;;;;4.50;100.00;102439.75;4933900;28;20089;-86
2022/01/15 02:51:54;;;;;;;39.05;19.38;;;;;;;4.51;100.00;102445.81;4922516;28;20126;-86
2022/01/15 02:54:21;;;;;;;33.88;17.60;;;;;;;4.51;100.00;102443.22;4934436;28;20051;-87
2022/01/15 02:56:47;;;;;;;42.85;20.05;;;;;;;4.52;100.00;102450.19;4937396;28;20051;-87
2022/01/15 02:59:25;;;;;;;47.80;20.27;;;;;;;4.50;100.00;102442.34;4938904;28;20043;-86
2022/01/15 03:01:52;;;;;;;36.17;18.95;;;;;;;4.46;100.00;102440.44;4944750;28;20145;-87
2022/01/15 03:04:20;;;;;;;36.95;17.95;;;;;;;4.45;100.00;102438.66;4933673;28;20291;-86
2022/01/15 03:06:47;;;;;;;39.95;19.23;;;;;;;4.48;100.00;102423.22;4930508;28;20159;-86
2022/01/15 03:09:13;;;;;;;39.05;17.30;;;;;;;4.47;100.00;102424.03;4936173;28;20051;-87
2022/01/15 03:11:40;;;;;;;46.45;22.17;;;;;;;4.47;100.00;102427.53;4955772;28;20047;-87
2022/01/15 03:14:07;;;;;;;39.28;17.73;;;;;;;4.48;100.00;102428.41;4920112;28;20043;-87
2022/01/15 03:16:33;;;;;;;34.65;17.65;;;;;;;4.47;100.00;102427.53;4946998;28;20050;-87
2022/01/15 03:19:00;;;;;;;42.38;18.15;;;;;;;4.46;100.00;102436.13;4938007;28;20058;-85
2022/01/15 03:21:26;;;;;;;35.55;18.35;;;;;;;4.43;100.00;102433.41;4940110;28;20062;-86
2022/01/15 03:23:53;;;;;;;35.80;17.70;;;;;;;4.42;100.00;102431.63;4952164;28;20046;-86
2022/01/15 03:26:19;;;;;;;37.35;19.25;;;;;;;4.43;100.00;102430.81;4932697;28;20232;-87
2022/01/15 03:28:46;;;;;;;41.92;19.17;;;;;;;4.44;100.00;102421.31;4940517;28;20050;-86
2022/01/15 03:31:12;;;;;;;33.25;18.45;;;;;;;4.44;100.00;102418.72;4938537;28;20054;-86
2022/01/15 03:33:40;;;;;;;36.83;18.02;;;;;;;4.45;100.00;102415.31;4931096;28;20047;-86
2022/01/15 03:36:06;;;;;;;31.17;16.80;;;;;;;4.45;100.00;102415.31;4934916;28;20138;-88
2022/01/15 03:38:33;;;;;;;39.30;17.38;;;;;;;4.47;100.00;102417.16;4918505;28;20113;-87
2022/01/15 03:40:59;;;;;;;37.70;17.33;;;;;;;4.46;100.00;102417.09;4935971;28;20425;-87
2022/01/15 03:43:26;;;;;;;40.47;19.60;;;;;;;4.46;100.00;102410.19;4935803;28;20043;-87
2022/01/15 03:45:52;;;;;;;38.03;17.95;;;;;;;4.46;100.00;102407.63;4934305;28;20161;-87
2022/01/15 03:48:19;;;;;;;37.33;17.75;;;;;;;4.45;100.00;102402.38;4948524;28;20042;-86
2022/01/15 03:50:46;;;;;;;36.17;19.48;;;;;;;4.45;100.00;102407.53;4919848;28;21512;-87
2022/01/15 03:53:12;;;;;;;36.30;18.98;;;;;;;4.45;100.00;102418.78;4934960;28;20047;-87
2022/01/15 03:55:39;;;;;;;31.10;16.77;;;;;;;4.45;100.00;102405.81;4930082;28;20054;-87
2022/01/15 03:58:05;;;;;;;36.50;18.08;;;;;;;4.46;100.00;102398.97;4932212;28;20519;-86
2022/01/15 04:00:32;;;;;;;31.15;16.00;;;;;;;4.47;100.00;102398.13;4930872;28;20127;-87
2022/01/15 04:02:59;;;;;;;30.50;16.20;;;;;;;4.46;100.00;102397.25;4930989;28;20550;-86
2022/01/15 04:05:26;;;;;;;33.80;17.25;;;;;;;4.46;100.00;102397.25;4934444;28;20055;-85
2022/01/15 04:07:53;;;;;;;54.50;19.35;;;;;;;4.45;100.00;102389.41;4929526;28;20095;-86
2022/01/15 04:10:20;;;;;;;39.72;17.55;;;;;;;4.44;100.00;102390.22;4917419;28;20051;-86
2022/01/15 04:12:47;;;;;;;30.13;15.98;;;;;;;4.44;100.00;102393.69;4919006;29;20416;-86
2022/01/15 04:15:16;;;;;;;36.35;17.67;;;;;;;4.45;100.00;102395.47;4928263;28;20058;-86
2022/01/15 04:17:48;;;;;;;42.65;19.02;;;;;;;4.44;100.00;102388.50;4931966;28;20138;-86
2022/01/15 04:20:18;;;;;;;34.35;16.67;;;;;;;4.44;100.00;102391.09;4931907;28;20415;-87
2022/01/15 04:22:45;;;;;;;35.50;18.70;;;;;;;4.43;100.00;102386.75;4934116;28;20047;-87
2022/01/15 04:25:12;;;;;;;36.70;17.52;;;;;;;4.45;100.00;102390.28;4934773;28;20654;-87
2022/01/15 04:27:39;;;;;;;34.00;16.45;;;;;;;4.44;100.00;102383.31;4926047;28;20421;-87
2022/01/15 04:30:08;;;;;;;30.85;16.45;;;;;;;4.46;100.00;102380.81;4941206;28;20051;-86
2022/01/15 04:32:36;;;;;;;36.83;17.35;;;;;;;4.43;100.00;102394.53;4952041;28;20057;-87
2022/01/15 04:35:03;;;;;;;29.00;15.75;;;;;;;4.42;100.00;102390.16;4954916;28;20829;-87
2022/01/15 04:37:36;;;;;;;32.45;16.45;;;;;;;4.44;100.00;102388.50;4970370;28;20051;-87
2022/01/15 04:40:06;;;;;;;35.15;15.02;;;;;;;4.46;100.00;102394.66;4951009;28;20387;-87
2022/01/15 04:42:32;;;;;;;34.22;16.88;;;;;;;4.47;100.00;102395.50;4955884;28;20054;-86
2022/01/15 04:44:59;;;;;;;39.45;19.50;;;;;;;4.45;100.00;102394.59;4938946;28;20056;-86
2022/01/15 04:47:25;;;;;;;34.45;16.77;;;;;;;4.46;100.00;102397.25;4957373;28;20450;-86
2022/01/15 04:49:54;;;;;;;33.47;17.00;;;;;;;4.44;100.00;102398.88;4960379;28;20078;-88
2022/01/15 04:52:22;;;;;;;38.63;18.05;;;;;;;4.44;100.00;102403.16;4953996;28;20152;-86
2022/01/15 04:54:49;;;;;;;37.08;17.73;;;;;;;4.43;100.00;102402.31;4957050;28;20051;-86
2022/01/15 04:57:15;;;;;;;34.00;16.60;;;;;;;4.43;100.00;102398.81;4968840;28;20048;-87
2022/01/15 04:59:42;;;;;;;30.75;16.63;;;;;;;4.44;100.00;102405.78;4967794;28;20049;-87
2022/01/15 05:02:08;;;;;;;32.60;17.38;;;;;;;4.41;100.00;102398.75;4972303;28;20441;-87
2022/01/15 05:04:35;;;;;;;30.73;15.55;;;;;;;4.42;100.00;102405.72;4938621;28;20035;-88
2022/01/15 05:07:01;;;;;;;31.05;15.82;;;;;;;4.39;100.00;102400.38;4954650;28;20594;-88
2022/01/15 05:09:28;;;;;;;29.38;15.82;;;;;;;4.40;100.00;102401.28;4969424;28;20042;-88
2022/01/15 05:12:01;;;;;;;32.20;15.68;;;;;;;4.40;100.00;102390.91;4963064;28;20054;-87
2022/01/15 05:14:30;;;;;;;31.75;15.63;;;;;;;4.40;100.00;102396.97;4957347;28;20934;-88
2022/01/15 05:16:56;;;;;;;32.75;16.67;;;;;;;4.38;100.00;102390.84;4949729;28;20545;-86
2022/01/15 05:19:23;;;;;;;34.53;17.50;;;;;;;4.36;100.00;102389.88;4967434;28;20056;-87
2022/01/15 05:21:50;;;;;;;36.92;18.88;;;;;;;4.37;100.00;102389.06;4956793;28;20070;-88
2022/01/15 05:24:16;;;;;;;35.03;19.17;;;;;;;4.37;100.00;102390.75;4952220;28;20047;-87
2022/01/15 05:26:43;;;;;;;34.55;16.58;;;;;;;4.38;100.00;102390.84;4975115;28;20058;-87
2022/01/15 05:29:09;;;;;;;33.25;17.13;;;;;;;4.39;100.00;102389.13;4939552;28;20051;-88
2022/01/15 05:31:39;;;;;;;37.75;16.45;;;;;;;4.37;100.00;102394.25;4954792;28;20331;-87
2022/01/15 05:34:05;;;;;;;38.08;18.90;;;;;;;4.34;100.00;102391.53;4955969;28;20057;-87
2022/01/15 05:36:32;;;;;;;34.25;16.85;;;;;;;4.35;100.00;102387.22;4950252;28;20529;-87
2022/01/15 05:38:58;;;;;;;37.67;17.85;;;;;;;4.36;100.00;102405.41;4972910;28;20152;-87
2022/01/15 05:41:25;;;;;;;32.35;18.23;;;;;;;4.38;100.00;102397.72;4953249;28;20042;-87
2022/01/15 05:43:51;;;;;;;30.08;15.48;;;;;;;4.40;100.00;102399.56;4953863;28;20074;-86
2022/01/15 05:46:18;;;;;;;35.25;17.40;;;;;;;4.42;100.00;102391.84;4954533;28;20125;-86
2022/01/15 05:48:44;;;;;;;34.20;17.40;;;;;;;4.43;100.00;102386.75;4971625;28;20162;-87
2022/01/15 05:51:11;;;;;;;38.88;17.45;;;;;;;4.46;100.00;102391.19;4970155;28;20069;-86
2022/01/15 05:53:37;;;;;;;35.97;17.15;;;;;;;4.47;100.00;102382.56;4970213;28;20053;-86
2022/01/15 05:56:04;;;;;;;35.28;17.75;;;;;;;4.49;100.00;102380.94;4938793;28;20047;-87
2022/01/15 05:58:31;;;;;;;34.60;16.63;;;;;;;4.49;100.00;102378.34;4961866;28;20054;-87
2022/01/15 06:00:57;;;;;;;35.90;17.42;;;;;;;4.49;100.00;102380.06;4974850;28;20125;-87
2022/01/15 06:03:24;;;;;;;35.83;18.08;;;;;;;4.48;100.00;102368.78;4960620;28;20057;-88
2022/01/15 06:05:50;;;;;;;39.88;19.60;;;;;;;4.45;100.00;102366.94;4958510;28;20042;-88
2022/01/15 06:08:17;;;;;;;36.78;18.05;;;;;;;4.45;100.00;102372.13;4955072;28;20129;-88
2022/01/15 06:10:43;;;;;;;38.25;18.58;;;;;;;4.44;100.00;102370.34;4978124;28;20446;-88
2022/01/15 06:13:10;;;;;;;38.85;17.92;;;;;;;4.46;100.00;102370.44;4969475;28;20406;-87
2022/01/15 06:15:38;;;;;;;35.03;17.38;;;;;;;4.47;100.00;102374.78;4974214;28;20631;-88
2022/01/15 06:18:05;;;;;;;34.40;17.40;;;;;;;4.47;100.00;102369.59;4973865;28;20065;-87
2022/01/15 06:20:32;;;;;;;36.30;17.13;;;;;;;4.47;100.00;102372.19;4966072;28;20055;-88
2022/01/15 06:22:58;;;;;;;37.20;18.55;;;;;;;4.49;100.00;102374.88;4969044;28;20051;-88
2022/01/15 06:25:25;;;;;;;39.25;18.20;;;;;;;4.48;100.00;102368.78;4957660;28;20061;-86
2022/01/15 06:27:51;;;;;;;36.30;17.92;;;;;;;4.48;100.00;102366.19;4971270;28;20186;-87
2022/01/15 06:30:18;;;;;;;36.42;18.33;;;;;;;4.47;100.00;102365.31;4956415;28;20054;-86
2022/01/15 06:32:44;;;;;;;45.95;19.30;;;;;;;4.50;100.00;102372.34;4936860;28;20129;-86
2022/01/15 06:35:13;;;;;;;39.08;19.63;;;;;;;4.51;100.00;102370.63;4956436;28;20336;-87
2022/01/15 06:37:41;;;;;;;35.70;19.00;;;;;;;4.51;100.00;102370.63;4972425;28;20426;-87
2022/01/15 06:40:09;;;;;;;31.00;15.95;;;;;;;4.51;100.00;102368.94;4970139;28;21037;-87
2022/01/15 06:42:39;;;;;;;41.72;18.45;;;;;;;4.51;100.00;102375.81;4959582;28;20136;-87
2022/01/15 06:45:06;;;;;;;35.60;18.23;;;;;;;4.53;100.00;102371.59;4976228;28;20043;-87
2022/01/15 06:47:33;;;;;;;36.35;16.90;;;;;;;4.53;100.00;102379.38;4973440;28;20592;-86
2022/01/15 06:50:04;;;;;;;44.50;19.95;;;;;;;4.52;100.00;102377.59;4969827;28;20050;-86
2022/01/15 06:52:32;;;;;;;36.30;18.40;;;;;;;4.52;100.00;102375.88;4957639;28;20460;-87
2022/01/15 06:54:59;;;;;;;44.13;18.73;;;;;;;4.51;100.00;102376.72;4973898;28;20078;-86
2022/01/15 06:57:26;;;;;;;37.40;19.00;;;;;;;4.51;100.00;102376.72;4955018;28;20213;-87
2022/01/15 06:59:53;;;;;;;33.70;17.27;;;;;;;4.51;100.00;102379.31;4974365;28;20034;-87
2022/01/15 07:02:20;;;;;;;38.58;19.00;;;;;;;4.52;100.00;102385.38;4970769;28;20050;-87
2022/01/15 07:04:56;;;;;;;39.75;18.17;;;;;;;4.52;100.00;102386.25;4955968;28;20039;-87
2022/01/15 07:07:22;;;;;;;36.53;18.27;;;;;;;4.51;100.00;102381.91;4956218;28;20055;-87
2022/01/15 07:09:49;;;;;;;33.97;18.58;;;;;;;4.49;100.00;102380.94;4952851;28;20047;-85
2022/01/15 07:12:15;;;;;;;40.95;19.42;;;;;;;4.51;100.00;102388.78;4954355;28;20139;-87
2022/01/15 07:14:42;;;;;;;36.00;17.08;;;;;;;4.52;100.00;102393.16;4971998;28;20406;-87
2022/01/15 07:17:10;;;;;;;31.48;16.85;;;;;;;4.49;100.00;102380.94;4964975;28;20056;-86
2022/01/15 07:19:40;;;;;;;30.80;14.88;;;;;;;4.47;100.00;102372.19;4974497;28;20050;-87
2022/01/15 07:22:07;;;;;;;36.40;17.48;;;;;;;4.47;100.00;102370.50;4957956;28;20074;-87
2022/01/15 07:24:34;;;;;;;38.08;16.98;;;;;;;4.51;100.00;102376.72;4956276;28;20042;-87
2022/01/15 07:27:01;;;;;;;31.10;16.08;;;;;;;4.52;100.00;102380.19;4975687;28;20501;-87
2022/01/15 07:29:30;;;;;;;34.08;17.40;;;;;;;4.52;100.00;102375.88;4957927;28;20050;-87
2022/01/15 07:31:58;;;;;;;32.60;16.08;;;;;;;4.53;100.00;102374.19;4970905;28;20137;-87
2022/01/15 07:34:24;;;;;;;36.10;18.55;;;;;;;4.53;100.00;102376.78;4972119;28;20442;-87
2022/01/15 07:36:57;;;;;;;47.47;20.05;;;;;;;4.54;100.00;102375.97;4958702;28;20073;-87
2022/01/15 07:39:24;;;;;;;34.58;17.10;;;;;;;4.55;100.00;102375.09;4956732;28;20059;-87
2022/01/15 07:41:51;;;;;;;33.13;17.40;;;;;;;4.56;100.00;102363.91;4955580;28;20057;-87
2022/01/15 07:44:18;;;;;;;41.50;17.55;;;;;;;4.55;100.00;102367.31;4957779;28;20604;-87
2022/01/15 07:46:44;;;;;;;32.50;16.20;;;;;;;4.55;100.00;102367.31;4951335;28;20043;-86
2022/01/15 07:49:11;;;;;;;36.08;17.02;;;;;;;4.55;100.00;102373.44;4953989;28;20046;-85
2022/01/15 07:51:38;;;;;;;37.92;16.23;;;;;;;4.57;100.00;102378.66;4957058;28;20056;-87
2022/01/15 07:54:05;;;;;;;37.63;17.92;;;;;;;4.57;100.00;102373.47;4950036;28;20042;-88
2022/01/15 07:56:32;;;;;;;39.47;16.42;;;;;;;4.56;100.00;102376.88;4971156;28;20145;-87
2022/01/15 07:58:58;;;;;;;40.45;17.85;;;;;;;4.55;100.00;102373.44;4968819;28;20145;-88
2022/01/15 08:01:25;;;;;;;35.08;14.73;;;;;;;4.56;100.00;102372.59;4964909;28;20150;-88
2022/01/15 08:03:51;;;;;;;34.53;15.82;;;;;;;4.56;100.00;102370.00;4956129;28;20138;-87
2022/01/15 08:06:18;;;;;;;28.77;17.02;;;;;;;4.56;100.00;102367.41;4951948;28;20627;-85
2022/01/15 08:08:44;;;;;;;37.63;18.02;;;;;;;4.56;100.00;102364.81;4973045;28;20054;-86
2022/01/15 08:11:11;;;;;;;33.00;15.85;;;;;;;4.57;100.00;102363.09;4958844;28;20413;-86
2022/01/15 08:13:40;;;;;;;39.28;17.85;;;;;;;4.58;100.00;102365.75;4953169;28;20077;-87
2022/01/15 08:16:07;;;;;;;34.92;16.55;;;;;;;4.55;100.00;102357.88;4957616;28;20226;-86
2022/01/15 08:18:34;;;;;;;38.92;15.25;;;;;;;4.55;100.00;102356.97;4960601;28;20050;-87
2022/01/15 08:21:03;;;;;;;34.97;16.00;;;;;;;4.55;100.00;102363.03;4973029;28;20492;-87
2022/01/15 08:23:31;;;;;;;37.28;16.70;;;;;;;4.58;100.00;102352.78;4956395;28;20702;-87
2022/01/15 08:25:59;;;;;;;42.63;16.40;;;;;;;4.61;100.00;102359.81;4970831;28;20051;-88
2022/01/15 08:28:26;;;;;;;39.13;17.73;;;;;;;4.62;100.00;102362.47;4969399;28;20054;-85
2022/01/15 08:30:53;;;;;;;29.08;14.23;;;;;;;4.63;100.00;102358.19;4954832;28;20094;-85
2022/01/15 08:33:19;;;;;;;32.05;15.68;;;;;;;4.65;100.00;102351.34;4971108;28;20695;-85
2022/01/15 08:35:46;;;;;;;35.17;16.67;;;;;;;4.66;100.00;102352.25;4966851;28;20055;-88
2022/01/15 08:38:12;;;;;;;34.05;16.58;;;;;;;4.67;100.00;102349.72;4966453;28;20457;-85
2022/01/15 08:40:40;;;;;;;36.05;16.77;;;;;;;4.68;100.00;102353.19;4957070;28;20054;-88
2022/01/15 08:43:06;;;;;;;31.45;15.10;;;;;;;4.69;100.00;102357.56;4974075;28;20058;-87
2022/01/15 08:45:35;;;;;;;32.28;15.77;;;;;;;4.73;100.00;102351.69;4968683;28;20055;-87
2022/01/15 08:48:01;;;;;;;44.30;17.63;;;;;;;4.72;100.00;102349.91;4939450;28;20051;-87
2022/01/15 08:50:30;;;;;;;37.25;15.07;;;;;;;4.74;100.00;102350.84;4951808;28;20055;-86
2022/01/15 08:52:57;;;;;;;30.38;15.40;;;;;;;4.77;100.00;102363.94;4936977;28;20395;-87
2022/01/15 08:55:28;;;;;;;27.52;16.30;;;;;;;4.78;100.00;102366.63;4939143;28;20768;-85
2022/01/15 08:57:56;;;;;;;31.92;15.27;;;;;;;4.80;100.00;102364.09;4934353;28;20134;-85
2022/01/15 09:00:24;;;;;;;37.45;14.95;;;;;;;4.84;100.00;102362.50;4937218;28;20403;-85
2022/01/15 09:02:50;;;;;;;33.80;15.68;;;;;;;4.87;100.00;102363.53;4935407;28;20141;-86
2022/01/15 09:05:18;;;;;;;29.27;15.65;;;;;;;4.90;100.00;102368.84;4936730;28;21761;-87
2022/01/15 09:07:44;;;;;;;37.35;15.70;;;;;;;4.92;100.00;102362.00;4953103;28;20059;-86
2022/01/15 09:10:11;;;;;;;30.83;14.00;;;;;;;4.94;100.00;102364.66;4915221;28;20159;-87
2022/01/15 09:12:40;;;;;;;31.55;17.63;;;;;;;4.95;100.00;102363.84;4953299;28;20115;-87
2022/01/15 09:15:08;;;;;;;33.25;15.13;;;;;;;4.96;100.00;102374.28;4952817;28;20055;-87
2022/01/15 09:17:35;;;;;;;32.88;14.13;;;;;;;4.98;100.00;102366.59;4937497;28;20058;-86
2022/01/15 09:20:01;;;;;;;33.97;13.10;;;;;;;4.99;100.00;102363.13;4938022;28;20051;-85
2022/01/15 09:22:28;;;;;;;29.38;15.23;;;;;;;5.00;100.00;102354.53;4940856;28;21246;-88
2022/01/15 09:24:55;;;;;;;29.77;15.50;;;;;;;4.99;100.00;102360.53;4942280;28;20589;-89
2022/01/15 09:30:15;;;;;;;27.85;14.60;;;;;;;5.08;100.00;102357.47;4926073;28;20569;-86
2022/01/15 09:32:47;;;;;;;31.80;13.25;;;;;;;5.14;100.00;102358.59;4943383;28;20074;-86
2022/01/15 09:35:27;;;;;;;28.17;13.85;;;;;;;5.19;100.00;102357.88;4955649;28;20065;-87
2022/01/15 09:37:57;;;;;;;24.77;13.48;;;;;;;5.20;100.00;102355.38;4939239;28;20458;-87
2022/01/15 09:40:28;;;;;;;25.13;12.68;;;;;;;5.25;100.00;102353.84;4936669;28;20129;-88
2022/01/15 09:42:57;;;;;;;25.02;14.35;;;;;;;5.30;100.00;102349.69;4942152;28;20126;-86
2022/01/15 09:45:29;;;;;;;30.35;13.02;;;;;;;5.30;100.00;102348.81;4958904;28;20047;-87
2022/01/15 09:48:03;;;;;;;23.95;11.85;;;;;;;5.32;100.00;102347.19;4938170;28;20051;-86
2022/01/15 09:50:34;;;;;;;21.20;11.50;;;;;;;5.32;100.00;102348.88;4953222;28;20055;-88
2022/01/15 09:53:01;;;;;;;24.58;12.63;;;;;;;5.35;100.00;102349.91;4937531;28;20339;-86
2022/01/15 09:55:30;;;;;;;24.25;11.43;;;;;;;5.43;100.00;102340.69;4922671;29;20126;-86
2022/01/15 09:57:57;;;;;;;28.65;13.02;;;;;;;5.51;100.00;102335.78;4943410;28;20442;-86
2022/01/15 10:00:25;;;;;;;24.42;13.00;;;;;;;5.58;100.00;102336.91;4923473;28;20054;-87
2022/01/15 10:02:54;;;;;;;25.45;13.13;;;;;;;5.60;100.00;102333.56;4925304;28;20051;-87
2022/01/15 10:05:25;;;;;;;23.42;11.98;;;;;;;5.67;100.00;102336.41;4927683;28;20465;-86
2022/01/15 10:08:04;;;;;;;24.60;12.68;;;;;;;5.73;100.00;102336.63;4953949;28;20082;-88
2022/01/15 10:10:35;;;;;;;22.10;12.07;;;;;;;5.74;100.00;102328.91;4958332;28;20121;-85
2022/01/15 10:13:20;;;;;;;21.20;12.50;;;;;;;5.78;100.00;102333.38;4952258;28;20051;-89
2022/01/15 10:16:09;;;;;;;24.40;11.70;;;;;;;5.78;100.00;102329.91;4922553;28;20502;-87
2022/01/15 10:18:44;;;;;;;27.92;12.30;;;;;;;5.81;100.00;102324.81;4951689;28;20058;-86
2022/01/15 10:21:32;;;;;;;19.60;10.82;;;;;;;5.86;100.00;102323.28;4940595;28;20055;-88
2022/01/15 10:24:00;;;;;;;19.77;11.80;;;;;;;5.93;100.00;102324.38;4960252;28;20043;-86
2022/01/15 10:26:31;;;;;;;22.65;11.40;;;;;;;5.99;100.00;102327.25;4938112;28;20481;-87
2022/01/15 10:29:10;;;;;;;22.60;14.30;;;;;;;6.04;100.00;102322.22;4943364;28;20494;-89
2022/01/15 10:31:43;;;;;;;22.92;13.07;;;;;;;6.06;100.00;102329.25;4952593;28;20050;-87
2022/01/15 10:34:32;;;;;;;20.47;11.20;;;;;;;6.10;100.00;102319.84;4965845;28;20105;-86
2022/01/15 10:37:13;;;;;;;19.70;11.48;;;;;;;6.14;100.00;102313.94;4961140;28;20533;-86
2022/01/15 10:39:58;;;;;;;25.17;12.43;;;;;;;6.17;100.00;102308.84;4983893;28;20058;-87
2022/01/15 10:42:26;;;;;;;18.40;11.48;;;;;;;6.18;100.00;102322.72;4949215;28;20069;-86
2022/01/15 10:44:59;;;;;;;24.23;11.60;;;;;;;6.12;100.00;102306.06;4940655;28;20043;-90
2022/01/15 10:47:29;;;;;;;17.70;10.45;;;;;;;6.09;100.00;102303.34;4958573;28;20055;-90
2022/01/15 10:50:03;;;;;;;18.63;12.00;;;;;;;6.09;100.00;102298.16;4958193;28;20055;-87
2022/01/15 10:52:31;;;;;;;22.00;10.85;;;;;;;6.13;100.00;102292.22;4960682;28;20053;-87
2022/01/15 10:55:05;;;;;;;21.45;11.23;;;;;;;6.20;100.00;102295.06;4971751;28;20458;-86
2022/01/15 10:57:43;;;;;;;24.17;11.15;;;;;;;6.20;100.00;102292.47;4954649;28;20539;-87
2022/01/15 11:00:13;;;;;;;24.42;12.30;;;;;;;6.15;100.00;102281.88;4974905;28;20054;-88
2022/01/15 11:02:44;;;;;;;16.45;10.95;;;;;;;6.11;100.00;102285.22;4949996;28;20051;-89
2022/01/15 11:05:38;;;;;;;18.33;10.60;;;;;;;6.11;100.00;102275.72;4938871;28;20094;-89
2022/01/15 11:08:25;;;;;;;18.42;10.07;;;;;;;6.14;100.00;102280.13;4940756;28;20086;-88
2022/01/15 11:11:00;;;;;;;20.45;9.63;;;;;;;6.17;100.00;102288.03;4939430;28;20047;-87
2022/01/15 11:13:39;;;;;;;18.65;9.93;;;;;;;6.19;100.00;102286.38;4955306;28;20047;-87
2022/01/15 11:16:14;;;;;;;14.30;9.20;;;;;;;6.17;100.00;102284.56;4948232;28;20534;-89
2022/01/15 11:18:45;;;;;;;14.50;7.75;;;;;;;6.16;99.92;102277.59;4939273;28;20055;-89
2022/01/15 11:21:15;;;;;;;15.95;8.85;;;;;;;6.10;98.68;102276.53;4950447;28;20051;-86
2022/01/15 11:23:44;;;;;;;17.52;8.18;;;;;;;6.06;99.08;102273.75;4938365;28;20058;-87
2022/01/15 11:26:21;;;;;;;15.10;7.75;;;;;;;6.05;99.68;102267.69;4941559;28;20491;-89
2022/01/15 11:28:53;;;;;;;11.57;7.15;;;;;;;6.00;98.38;102263.13;4955193;28;20078;-87
2022/01/15 11:31:34;;;;;;;15.57;8.95;;;;;;;5.98;98.75;102265.69;4909964;28;20054;-86